Time;durP1;ratioP1;P1;durP2;ratioP2;P2;SDS_P1;SDS_P2;PMS_P1;PMS_P2;Temp;Humidity;BMP_temperature;BMP_pressure;BME280_temperature;BME280_humidity;BME280_pressure;Samples;Min_cycle;Max_cycle;Signal;HPM_P1;HPM_P2
2023/11/25 00:02:15;;;;;;;4.70;4.50;;;21.50;55.10;;;;;;5072809;28;20858;-68
2023/11/25 00:04:42;;;;;;;4.57;4.10;;;21.40;55.00;;;;;;5072588;28;20487;-68
2023/11/25 00:07:08;;;;;;;4.40;4.20;;;21.40;55.00;;;;;;5072483;28;20479;-68
2023/11/25 00:09:35;;;;;;;4.20;4.10;;;21.40;55.10;;;;;;5072615;28;20478;-68
2023/11/25 00:12:02;;;;;;;4.20;4.10;;;21.40;55.20;;;;;;5072587;28;20475;-68
2023/11/25 00:14:29;;;;;;;4.10;4.00;;;21.40;55.20;;;;;;5072470;28;20467;-68
2023/11/25 00:16:56;;;;;;;3.90;3.90;;;21.40;55.00;;;;;;5071237;28;20872;-68
2023/11/25 00:19:25;;;;;;;4.40;4.30;;;21.40;55.10;;;;;;5072372;28;20875;-68
2023/11/25 00:21:51;;;;;;;4.10;4.10;;;21.40;55.20;;;;;;5072401;28;20536;-68
2023/11/25 00:24:18;;;;;;;3.93;3.83;;;21.40;55.20;;;;;;5072458;28;20562;-68
2023/11/25 00:26:45;;;;;;;3.90;3.80;;;21.30;55.10;;;;;;5071757;28;20435;-68
2023/11/25 00:29:12;;;;;;;3.60;3.60;;;21.40;55.20;;;;;;5072339;28;20471;-68
2023/11/25 00:31:39;;;;;;;4.37;4.27;;;21.40;55.20;;;;;;5072036;28;20444;-68
2023/11/25 00:34:06;;;;;;;4.40;4.20;;;21.30;55.20;;;;;;5072114;28;20461;-68
2023/11/25 00:36:34;;;;;;;4.37;4.27;;;21.30;55.20;;;;;;5071404;28;20503;-68
2023/11/25 00:39:01;;;;;;;3.77;3.73;;;21.30;55.30;;;;;;5072169;28;20475;-68
2023/11/25 00:41:28;;;;;;;4.00;4.00;;;21.20;55.20;;;;;;5072056;28;20839;-68
2023/11/25 00:43:55;;;;;;;4.30;4.20;;;21.20;55.30;;;;;;5072290;28;20890;-68
2023/11/25 00:46:22;;;;;;;4.20;4.10;;;21.20;55.30;;;;;;5072013;28;20514;-68
2023/11/25 00:48:49;;;;;;;4.50;4.40;;;21.30;55.40;;;;;;5065042;28;20526;-68
2023/11/25 00:51:17;;;;;;;4.33;4.23;;;21.30;55.40;;;;;;5071975;28;20467;-68
2023/11/25 00:53:45;;;;;;;4.20;4.10;;;21.20;55.80;;;;;;5071900;28;20815;-68
2023/11/25 00:56:12;;;;;;;4.17;4.00;;;21.20;55.40;;;;;;5071169;28;20525;-68
2023/11/25 00:58:39;;;;;;;4.07;3.97;;;21.20;55.30;;;;;;5071762;28;20475;-68
2023/11/25 01:01:06;;;;;;;4.13;4.03;;;21.20;55.50;;;;;;5071854;28;20470;-68
2023/11/25 01:03:32;;;;;;;3.77;3.57;;;21.20;55.50;;;;;;5071123;28;20476;-68
2023/11/25 01:06:00;;;;;;;4.10;3.90;;;21.10;55.60;;;;;;5071664;28;20898;-68
2023/11/25 01:08:29;;;;;;;3.70;3.63;;;21.10;55.50;;;;;;5071567;28;20821;-68
2023/11/25 01:10:57;;;;;;;4.17;4.07;;;21.10;55.60;;;;;;5071797;28;20440;-68
2023/11/25 01:13:24;;;;;;;4.10;4.00;;;21.10;55.70;;;;;;5071278;28;20490;-68
2023/11/25 01:15:52;;;;;;;4.10;4.00;;;21.10;55.70;;;;;;5063381;28;20510;-68
2023/11/25 01:18:19;;;;;;;4.20;4.00;;;21.10;55.80;;;;;;5071560;28;20928;-68
2023/11/25 01:20:46;;;;;;;3.97;3.87;;;21.10;55.80;;;;;;5071686;28;20514;-68
2023/11/25 01:23:15;;;;;;;4.10;4.00;;;21.10;55.80;;;;;;5071594;28;20447;-68
2023/11/25 01:25:42;;;;;;;4.10;4.00;;;21.10;55.80;;;;;;5070971;28;20463;-68
2023/11/25 01:28:10;;;;;;;4.17;4.07;;;21.10;55.60;;;;;;5071382;28;20482;-68
2023/11/25 01:30:39;;;;;;;4.00;3.90;;;21.10;55.50;;;;;;5071647;28;20531;-68
2023/11/25 01:33:06;;;;;;;4.20;4.10;;;21.10;55.60;;;;;;5071340;28;20447;-68
2023/11/25 01:35:33;;;;;;;3.80;3.80;;;21.10;55.50;;;;;;5070911;28;20524;-68
2023/11/25 01:38:00;;;;;;;3.60;3.60;;;21.10;55.70;;;;;;5071479;28;20474;-68
2023/11/25 01:40:27;;;;;;;3.90;3.80;;;21.10;55.70;;;;;;5071570;28;20474;-68
2023/11/25 01:42:57;;;;;;;4.30;4.20;;;21.10;55.80;;;;;;5071297;28;20467;-68
2023/11/25 01:45:26;;;;;;;4.40;4.30;;;21.10;55.80;;;;;;5070608;28;20459;-68
2023/11/25 01:47:54;;;;;;;4.00;3.80;;;21.10;55.80;;;;;;5063595;28;20443;-69
2023/11/25 01:50:21;;;;;;;4.20;4.10;;;21.10;55.80;;;;;;5071362;28;20865;-69
2023/11/25 01:52:51;;;;;;;4.13;4.07;;;21.10;55.80;;;;;;5071152;28;20459;-69
2023/11/25 01:55:18;;;;;;;3.97;3.87;;;21.10;55.80;;;;;;5070458;28;20522;-69
2023/11/25 01:57:45;;;;;;;4.10;3.90;;;21.00;55.70;;;;;;5071217;28;20446;-69
2023/11/25 02:00:15;;;;;;;3.97;3.87;;;21.00;55.80;;;;;;5071278;28;20479;-69
2023/11/25 02:02:43;;;;;;;4.13;4.13;;;21.00;55.80;;;;;;5070396;28;20475;-69
2023/11/25 02:05:10;;;;;;;4.13;4.03;;;21.00;55.90;;;;;;5071039;28;20463;-69
2023/11/25 02:07:37;;;;;;;4.13;4.03;;;21.00;55.90;;;;;;5070994;28;20478;-69
2023/11/25 02:10:06;;;;;;;4.30;4.20;;;21.00;55.90;;;;;;5071188;28;20471;-69
2023/11/25 02:12:34;;;;;;;4.20;4.10;;;21.00;55.90;;;;;;5070388;28;20988;-69
2023/11/25 02:15:02;;;;;;;4.33;4.13;;;21.00;55.80;;;;;;5070862;28;20467;-69
2023/11/25 02:17:29;;;;;;;4.20;4.10;;;20.90;55.70;;;;;;5071031;28;20483;-68
2023/11/25 02:20:00;;;;;;;4.07;3.90;;;20.90;55.70;;;;;;5071130;28;20467;-69
2023/11/25 02:22:27;;;;;;;3.90;3.90;;;20.90;55.80;;;;;;5066567;28;20448;-69
2023/11/25 02:24:55;;;;;;;4.20;4.10;;;20.90;55.90;;;;;;5070918;28;20495;-69
2023/11/25 02:27:23;;;;;;;4.00;3.90;;;20.90;55.90;;;;;;5071204;28;20857;-69
2023/11/25 02:29:51;;;;;;;3.60;3.50;;;20.90;55.80;;;;;;5070726;28;21022;-69
2023/11/25 02:32:18;;;;;;;4.10;3.80;;;20.90;55.80;;;;;;5068532;28;20554;-68
2023/11/25 02:34:45;;;;;;;4.20;4.10;;;20.90;55.70;;;;;;5060554;28;20493;-68
2023/11/25 02:40:35;;;;;;;4.10;3.90;;;20.90;55.80;;;;;;5070886;28;20414;-69
2023/11/25 02:43:02;;;;;;;4.13;4.03;;;20.90;55.80;;;;;;5072953;28;20471;-69
2023/11/25 02:45:29;;;;;;;3.67;3.57;;;20.90;55.90;;;;;;5067444;28;20459;-69
2023/11/25 02:47:56;;;;;;;4.10;4.00;;;20.80;55.90;;;;;;5073824;28;20489;-68
2023/11/25 02:50:23;;;;;;;3.70;3.70;;;20.90;56.00;;;;;;5074328;28;20482;-68
2023/11/25 02:52:50;;;;;;;4.87;4.57;;;20.90;55.90;;;;;;5073554;28;20444;-68
2023/11/25 02:55:17;;;;;;;5.83;4.30;;;20.90;56.00;;;;;;5074117;28;20613;-69
2023/11/25 02:57:46;;;;;;;4.40;4.27;;;20.90;55.90;;;;;;5074112;28;20467;-69
2023/11/25 03:00:27;;;;;;;4.10;4.10;;;20.90;55.90;;;;;;5074194;28;20447;-70
2023/11/25 03:03:00;;;;;;;4.50;4.40;;;20.90;55.90;;;;;;5065408;28;20443;-69
2023/11/25 03:05:27;;;;;;;4.40;4.20;;;20.80;55.80;;;;;;5074040;28;20463;-69
2023/11/25 03:07:56;;;;;;;4.50;4.40;;;20.90;55.90;;;;;;5065781;28;20467;-69
2023/11/25 03:10:23;;;;;;;4.00;3.90;;;20.80;55.80;;;;;;5074039;28;20475;-69
2023/11/25 03:12:52;;;;;;;4.27;4.17;;;20.90;55.90;;;;;;5070876;28;20958;-69
2023/11/25 03:15:19;;;;;;;4.50;4.40;;;20.80;55.80;;;;;;5073083;28;20554;-68
2023/11/25 03:17:47;;;;;;;4.70;4.60;;;20.80;55.80;;;;;;5073797;28;20447;-68
2023/11/25 03:20:14;;;;;;;3.87;3.83;;;20.80;56.30;;;;;;5073783;28;20483;-68
2023/11/25 03:22:41;;;;;;;4.10;3.90;;;20.80;55.90;;;;;;5073093;28;20482;-68
2023/11/25 03:25:09;;;;;;;3.80;3.80;;;20.80;55.90;;;;;;5073616;28;20489;-69
2023/11/25 03:27:36;;;;;;;4.27;4.07;;;20.80;55.80;;;;;;5073566;28;21001;-69
2023/11/25 03:30:06;;;;;;;4.70;4.60;;;20.80;55.80;;;;;;5073526;28;20443;-69
2023/11/25 03:32:34;;;;;;;4.70;4.60;;;20.80;55.80;;;;;;5072852;28;20980;-69
2023/11/25 03:35:01;;;;;;;4.30;4.20;;;20.80;55.80;;;;;;5073505;28;20550;-68
2023/11/25 03:37:29;;;;;;;4.40;4.30;;;20.80;55.80;;;;;;5073338;28;21033;-69
2023/11/25 03:39:56;;;;;;;4.57;4.47;;;20.80;55.70;;;;;;5065339;28;20530;-68
2023/11/25 03:42:23;;;;;;;4.10;4.10;;;20.80;55.70;;;;;;5073176;28;20467;-68
2023/11/25 03:44:50;;;;;;;4.10;3.90;;;20.70;55.70;;;;;;5073069;28;20467;-69
2023/11/25 03:47:18;;;;;;;4.80;4.60;;;20.80;55.90;;;;;;5073115;28;20473;-68
2023/11/25 03:49:45;;;;;;;4.40;4.30;;;20.80;55.90;;;;;;5073007;28;20475;-68
2023/11/25 03:52:12;;;;;;;4.40;4.30;;;20.80;55.90;;;;;;5072989;28;20818;-68
2023/11/25 03:54:39;;;;;;;4.63;4.53;;;20.70;55.80;;;;;;5072831;28;20490;-69
2023/11/25 03:57:06;;;;;;;5.20;5.10;;;20.70;55.80;;;;;;5072909;28;21002;-68
2023/11/25 03:59:33;;;;;;;5.93;5.67;;;20.70;55.70;;;;;;5072745;28;20469;-69
2023/11/25 04:02:01;;;;;;;5.80;5.60;;;20.70;55.80;;;;;;5072454;28;20448;-68
2023/11/25 04:04:29;;;;;;;5.10;4.90;;;20.70;55.80;;;;;;5072784;28;20463;-69
2023/11/25 04:06:57;;;;;;;5.17;5.07;;;20.70;55.80;;;;;;5064601;28;20443;-69
2023/11/25 04:09:24;;;;;;;5.67;5.57;;;20.70;55.70;;;;;;5072785;28;20447;-69
2023/11/25 04:11:51;;;;;;;5.30;5.20;;;20.70;55.70;;;;;;5072087;28;20490;-69
2023/11/25 04:14:19;;;;;;;5.30;5.20;;;20.70;55.80;;;;;;5072463;28;20471;-69
2023/11/25 04:16:46;;;;;;;5.10;5.00;;;20.70;55.80;;;;;;5072559;28;20510;-68
2023/11/25 04:19:13;;;;;;;5.47;5.37;;;20.70;55.80;;;;;;5072720;28;20480;-69
2023/11/25 04:21:45;;;;;;;4.90;4.80;;;20.70;55.70;;;;;;5065516;28;20521;-69
2023/11/25 04:24:13;;;;;;;5.10;5.00;;;20.70;55.70;;;;;;5072501;28;20482;-68
2023/11/25 04:26:41;;;;;;;6.07;5.47;;;20.70;55.80;;;;;;5072331;28;20474;-69
2023/11/25 04:29:08;;;;;;;4.70;4.60;;;20.70;55.80;;;;;;5072381;28;20477;-69
2023/11/25 04:31:36;;;;;;;5.20;5.10;;;20.70;55.90;;;;;;5065707;28;20455;-75
2023/11/25 04:34:04;;;;;;;3.60;3.50;;;20.70;55.80;;;;;;5067762;28;20437;-70
2023/11/25 04:36:32;;;;;;;4.53;4.43;;;20.80;55.70;;;;;;5072738;28;20225;-71
2023/11/25 04:39:00;;;;;;;4.70;4.60;;;20.90;55.50;;;;;;5064463;28;20443;-72
2023/11/25 04:41:27;;;;;;;5.50;5.40;;;20.90;55.40;;;;;;5072135;28;20471;-71
2023/11/25 04:43:56;;;;;;;4.87;4.67;;;20.90;55.60;;;;;;5071277;28;20478;-71
2023/11/25 04:46:22;;;;;;;5.03;4.80;;;20.80;55.80;;;;;;5072094;28;20451;-71
2023/11/25 04:48:50;;;;;;;4.87;4.77;;;20.80;55.70;;;;;;5071864;28;20474;-71
2023/11/25 04:51:23;;;;;;;4.93;4.73;;;20.80;55.70;;;;;;5072118;28;20447;-72
2023/11/25 04:53:50;;;;;;;5.03;4.83;;;20.70;55.60;;;;;;5065158;28;20446;-71
2023/11/25 04:56:18;;;;;;;5.30;5.10;;;20.70;55.50;;;;;;5071841;28;20554;-71
2023/11/25 04:58:45;;;;;;;5.07;4.90;;;20.70;55.40;;;;;;5071733;28;20475;-71
2023/11/25 05:01:12;;;;;;;5.10;4.70;;;20.70;55.40;;;;;;5072059;28;20946;-71
2023/11/25 05:03:40;;;;;;;6.13;5.93;;;20.70;55.50;;;;;;5066459;28;20531;-71
2023/11/25 05:06:10;;;;;;;4.47;4.37;;;20.80;55.60;;;;;;5065162;28;20463;-71
2023/11/25 05:08:37;;;;;;;4.80;4.70;;;20.70;55.50;;;;;;5071723;28;20450;-71
2023/11/25 05:11:05;;;;;;;5.03;4.93;;;20.70;55.50;;;;;;5072059;28;20486;-71
2023/11/25 05:13:33;;;;;;;4.70;4.63;;;20.80;55.50;;;;;;5071453;28;20450;-71
2023/11/25 05:16:01;;;;;;;5.07;4.90;;;20.70;55.50;;;;;;5063560;28;20508;-71
2023/11/25 05:18:28;;;;;;;4.90;4.80;;;20.80;55.40;;;;;;5071651;28;20431;-71
2023/11/25 05:20:54;;;;;;;5.10;5.00;;;20.80;55.50;;;;;;5071594;28;20498;-71
2023/11/25 05:23:21;;;;;;;5.13;4.93;;;20.80;55.30;;;;;;5070940;28;20467;-72
2023/11/25 05:25:48;;;;;;;4.40;4.30;;;20.80;55.20;;;;;;5071382;28;20483;-71
2023/11/25 05:28:15;;;;;;;5.40;5.20;;;20.80;55.20;;;;;;5071456;28;20432;-71
2023/11/25 05:30:43;;;;;;;4.83;4.73;;;20.80;55.30;;;;;;5071356;28;20541;-71
2023/11/25 05:33:10;;;;;;;5.50;5.30;;;20.80;55.20;;;;;;5070650;28;20471;-71
2023/11/25 05:35:37;;;;;;;5.10;4.80;;;20.80;55.20;;;;;;5071183;28;20513;-71
2023/11/25 05:38:04;;;;;;;5.23;5.10;;;20.80;55.20;;;;;;5071465;28;20506;-71
2023/11/25 05:40:31;;;;;;;6.07;5.53;;;20.80;55.30;;;;;;5071381;28;20546;-71
2023/11/25 05:43:00;;;;;;;5.50;5.30;;;20.90;55.10;;;;;;5070576;28;20471;-71
2023/11/25 05:45:30;;;;;;;5.53;5.23;;;20.90;55.10;;;;;;5070476;28;20463;-71
2023/11/25 05:47:58;;;;;;;5.50;5.30;;;20.80;55.00;;;;;;5071425;28;20451;-71
2023/11/25 05:50:25;;;;;;;5.10;5.00;;;20.90;55.00;;;;;;5071420;28;20471;-71
2023/11/25 05:52:52;;;;;;;5.37;5.27;;;20.80;55.10;;;;;;5070496;28;20478;-71
2023/11/25 05:55:20;;;;;;;6.30;6.00;;;20.80;55.20;;;;;;5071151;28;20495;-71
2023/11/25 05:57:50;;;;;;;5.57;5.30;;;20.80;55.10;;;;;;5071168;28;20478;-71
2023/11/25 06:00:17;;;;;;;6.27;6.00;;;20.80;55.20;;;;;;5071273;28;20444;-70
2023/11/25 06:02:44;;;;;;;6.00;5.90;;;20.80;55.20;;;;;;5070388;28;20459;-71
2023/11/25 06:05:12;;;;;;;6.20;6.07;;;20.80;55.20;;;;;;5071250;28;20905;-71
2023/11/25 06:07:39;;;;;;;5.47;5.27;;;20.90;55.20;;;;;;5070993;28;20445;-71
2023/11/25 06:10:09;;;;;;;5.77;5.57;;;20.80;55.20;;;;;;5071066;28;21114;-71
2023/11/25 06:12:37;;;;;;;5.70;5.50;;;20.80;55.40;;;;;;5070324;28;20475;-71
2023/11/25 06:15:04;;;;;;;4.90;4.73;;;20.80;55.30;;;;;;5073126;28;20499;-71
2023/11/25 06:17:32;;;;;;;4.70;4.60;;;20.80;55.40;;;;;;5074802;28;20489;-71
2023/11/25 06:19:59;;;;;;;5.47;5.20;;;20.80;55.40;;;;;;5074790;28;20810;-71
2023/11/25 06:22:27;;;;;;;5.03;4.67;;;20.80;55.40;;;;;;5072804;28;20486;-71
2023/11/25 06:24:54;;;;;;;5.27;5.10;;;20.80;55.40;;;;;;5073092;28;20514;-71
2023/11/25 06:27:21;;;;;;;5.00;4.90;;;20.80;55.20;;;;;;5074725;28;20463;-71
2023/11/25 06:29:49;;;;;;;5.03;4.87;;;20.80;55.30;;;;;;5074742;28;20461;-71
2023/11/25 06:32:16;;;;;;;5.43;5.23;;;20.80;55.30;;;;;;5073901;28;20450;-71
2023/11/25 06:34:44;;;;;;;5.90;5.60;;;20.80;55.30;;;;;;5074474;28;20876;-71
2023/11/25 06:37:11;;;;;;;5.20;5.10;;;20.80;55.30;;;;;;5074527;28;20471;-71
2023/11/25 06:39:40;;;;;;;5.43;5.33;;;20.80;55.30;;;;;;5074695;28;20449;-75
2023/11/25 06:42:09;;;;;;;4.70;4.60;;;20.80;55.40;;;;;;5074778;28;20448;-69
2023/11/25 06:44:41;;;;;;;4.60;4.40;;;20.90;55.10;;;;;;5071015;28;20569;-69
2023/11/25 06:47:10;;;;;;;4.60;4.50;;;20.90;55.20;;;;;;5067072;28;20444;-69
2023/11/25 06:49:38;;;;;;;5.30;5.00;;;20.90;55.30;;;;;;5074135;28;20813;-70
2023/11/25 06:52:06;;;;;;;4.67;4.57;;;21.00;55.70;;;;;;5073879;28;20516;-67
2023/11/25 06:54:34;;;;;;;5.23;5.03;;;21.10;55.80;;;;;;5073800;28;20463;-67
2023/11/25 06:57:02;;;;;;;4.90;4.80;;;21.10;55.70;;;;;;5074008;28;20982;-68
2023/11/25 06:59:29;;;;;;;4.67;4.60;;;21.20;55.60;;;;;;5074785;28;20439;-68
2023/11/25 07:01:56;;;;;;;5.50;5.30;;;21.20;55.30;;;;;;5074605;28;20474;-69
2023/11/25 07:04:23;;;;;;;6.37;6.07;;;21.30;55.90;;;;;;5057581;28;20955;-67
2023/11/25 07:06:50;;;;;;;5.63;5.43;;;21.30;55.80;;;;;;5054170;28;20475;-67
2023/11/25 07:09:24;;;;;;;5.27;5.07;;;21.30;55.40;;;;;;5054119;28;21304;-67
2023/11/25 07:11:54;;;;;;;5.57;5.37;;;21.40;55.40;;;;;;5054750;28;20451;-69
2023/11/25 07:14:24;;;;;;;5.50;5.30;;;21.40;55.00;;;;;;5070026;28;20961;-69
2023/11/25 07:16:53;;;;;;;7.30;6.67;;;21.40;55.30;;;;;;5074303;28;20947;-67
2023/11/25 07:19:20;;;;;;;5.97;5.77;;;21.40;55.60;;;;;;5074172;28;20532;-67
2023/11/25 07:21:51;;;;;;;6.40;6.10;;;21.50;56.00;;;;;;5073540;28;20443;-67
2023/11/25 07:24:19;;;;;;;5.60;5.50;;;21.50;55.70;;;;;;5073783;28;20463;-66
2023/11/25 07:26:51;;;;;;;5.10;5.00;;;21.60;55.70;;;;;;5072313;28;20513;-67
2023/11/25 07:29:26;;;;;;;5.97;5.70;;;21.60;55.60;;;;;;5073795;28;20448;-66
2023/11/25 07:31:58;;;;;;;6.13;6.03;;;21.50;55.60;;;;;;5097417;28;20462;-67
2023/11/25 07:34:32;;;;;;;6.73;6.50;;;21.60;55.80;;;;;;5053483;28;20466;-67
2023/11/25 07:37:00;;;;;;;5.95;5.65;;;21.60;56.10;;;;;;5053285;28;20893;-67
2023/11/25 07:42:16;;;;;;;5.87;5.60;;;21.70;55.70;;;;;;5073805;28;20216;-67
2023/11/25 07:44:43;;;;;;;5.90;5.80;;;21.70;55.80;;;;;;5072124;28;20498;-68
2023/11/25 07:47:15;;;;;;;6.00;5.90;;;21.80;55.50;;;;;;5057157;23;20535;-71
2023/11/25 07:49:42;;;;;;;6.80;6.40;;;21.70;55.40;;;;;;5002467;28;21008;-70
2023/11/25 07:52:09;;;;;;;6.00;5.90;;;21.80;55.60;;;;;;5005406;28;20484;-70
2023/11/25 07:54:36;;;;;;;6.70;6.40;;;21.80;55.60;;;;;;5005418;28;20461;-70
2023/11/25 07:57:04;;;;;;;6.30;6.10;;;21.80;55.40;;;;;;5001999;28;20527;-69
2023/11/25 07:59:31;;;;;;;6.20;5.90;;;21.80;55.50;;;;;;5005326;28;20877;-72
2023/11/25 08:01:58;;;;;;;6.40;5.90;;;21.80;55.50;;;;;;5002624;28;20497;-72
2023/11/25 08:04:27;;;;;;;6.53;6.33;;;21.80;55.50;;;;;;5000000;28;20473;-71
2023/11/25 08:06:54;;;;;;;6.97;6.67;;;21.80;55.30;;;;;;5002169;28;20856;-70
2023/11/25 08:09:23;;;;;;;6.43;6.33;;;21.80;55.00;;;;;;5005055;28;20442;-70
2023/11/25 08:11:50;;;;;;;6.40;6.27;;;21.80;54.90;;;;;;5003725;28;20536;-71
2023/11/25 08:14:17;;;;;;;6.80;6.50;;;21.80;55.10;;;;;;5001778;28;20501;-72
2023/11/25 08:16:44;;;;;;;6.77;6.47;;;21.90;55.40;;;;;;5001641;28;20928;-72
2023/11/25 08:19:11;;;;;;;6.40;6.10;;;21.90;54.80;;;;;;5004878;28;20492;-68
2023/11/25 08:21:39;;;;;;;6.57;6.27;;;21.90;54.40;;;;;;5004978;28;20980;-71
2023/11/25 08:24:07;;;;;;;6.20;6.03;;;21.90;54.70;;;;;;4993517;28;20937;-71
2023/11/25 08:26:35;;;;;;;6.47;6.20;;;21.90;55.00;;;;;;5000974;28;20469;-68
2023/11/25 08:29:02;;;;;;;6.80;6.50;;;21.90;54.30;;;;;;4998384;28;20466;-68
2023/11/25 08:31:30;;;;;;;6.50;6.30;;;22.00;54.30;;;;;;4998668;28;20479;-69
2023/11/25 08:34:01;;;;;;;7.47;7.17;;;22.00;54.10;;;;;;5002828;28;20457;-69
2023/11/25 08:36:28;;;;;;;6.67;6.57;;;22.00;54.10;;;;;;5000793;28;21037;-69
2023/11/25 08:39:01;;;;;;;6.80;6.60;;;21.90;54.30;;;;;;5002522;28;20511;-68
2023/11/25 08:41:29;;;;;;;6.23;6.13;;;21.90;54.30;;;;;;5004223;28;20487;-69
2023/11/25 08:43:59;;;;;;;7.40;7.20;;;21.90;54.40;;;;;;5002006;28;20458;-68
2023/11/25 08:46:26;;;;;;;6.70;6.50;;;21.90;54.30;;;;;;5000699;28;20470;-68
2023/11/25 08:48:53;;;;;;;6.30;6.10;;;21.90;54.30;;;;;;5002359;28;20474;-68
2023/11/25 08:51:20;;;;;;;6.90;6.70;;;21.90;54.30;;;;;;5004110;28;20477;-69
2023/11/25 08:53:49;;;;;;;6.20;6.10;;;21.90;54.40;;;;;;5003149;28;20478;-69
2023/11/25 08:56:18;;;;;;;6.87;6.47;;;21.90;54.20;;;;;;5000776;28;20457;-70
2023/11/25 08:58:45;;;;;;;7.13;6.93;;;21.90;54.20;;;;;;5000909;28;20517;-69
2023/11/25 09:01:12;;;;;;;6.50;6.40;;;21.90;54.20;;;;;;5004047;28;20960;-69
2023/11/25 09:03:39;;;;;;;6.60;6.40;;;21.90;54.10;;;;;;5004038;28;20473;-70
2023/11/25 09:06:07;;;;;;;7.77;7.47;;;21.90;54.10;;;;;;5000404;28;20903;-69
2023/11/25 09:08:33;;;;;;;5.90;5.80;;;21.90;54.10;;;;;;4998929;28;20451;-68
2023/11/25 09:11:01;;;;;;;6.43;6.33;;;21.90;54.80;;;;;;4999967;28;20500;-73
2023/11/25 09:13:30;;;;;;;5.80;5.60;;;21.90;54.70;;;;;;5000730;28;20443;-72
2023/11/25 09:15:57;;;;;;;5.70;5.60;;;21.90;55.00;;;;;;5002557;28;20447;-73
2023/11/25 09:18:25;;;;;;;6.80;6.30;;;21.90;55.10;;;;;;5003786;28;20489;-72
2023/11/25 09:20:52;;;;;;;6.27;6.07;;;21.80;54.60;;;;;;4999488;28;20453;-72
2023/11/25 09:23:19;;;;;;;6.20;6.00;;;21.90;54.70;;;;;;5000424;28;20474;-71
2023/11/25 09:25:46;;;;;;;7.00;6.50;;;21.90;54.40;;;;;;5000699;28;20478;-71
2023/11/25 09:28:14;;;;;;;7.23;6.93;;;22.00;54.60;;;;;;4997557;28;20485;-71
2023/11/25 09:30:42;;;;;;;6.90;6.70;;;22.00;54.20;;;;;;5003918;28;20446;-72
2023/11/25 09:33:09;;;;;;;6.50;6.27;;;21.90;54.00;;;;;;4979972;28;20466;-72
2023/11/25 09:35:37;;;;;;;5.43;5.23;;;21.90;54.40;;;;;;5003766;28;20969;-69
2023/11/25 09:38:04;;;;;;;6.80;6.60;;;21.90;54.20;;;;;;4996006;28;20517;-68
2023/11/25 09:40:31;;;;;;;6.37;6.17;;;21.90;54.30;;;;;;5003793;28;20446;-66
2023/11/25 09:42:58;;;;;;;7.17;6.90;;;22.00;53.70;;;;;;5001666;28;20450;-72
2023/11/25 09:45:29;;;;;;;6.43;6.23;;;22.00;53.70;;;;;;4999967;28;20475;-72
2023/11/25 09:47:57;;;;;;;7.00;6.60;;;22.00;54.00;;;;;;5001827;28;20505;-72
2023/11/25 09:50:34;;;;;;;6.70;6.50;;;22.00;53.90;;;;;;5007568;28;20477;-72
2023/11/25 09:53:14;;;;;;;5.97;5.77;;;22.00;53.80;;;;;;4999567;28;20433;-69
2023/11/25 09:55:47;;;;;;;6.73;6.30;;;22.10;53.20;;;;;;5003946;28;20446;-73
2023/11/25 09:58:17;;;;;;;6.60;6.40;;;22.00;53.80;;;;;;4997291;28;20513;-71
2023/11/25 10:00:44;;;;;;;7.10;6.80;;;22.10;53.60;;;;;;5004042;28;20461;-71
2023/11/25 10:03:14;;;;;;;7.37;6.97;;;22.10;53.70;;;;;;5007384;28;20438;-70
2023/11/25 10:05:46;;;;;;;6.70;6.40;;;22.10;54.10;;;;;;5007056;28;20453;-70
2023/11/25 10:08:17;;;;;;;7.10;6.90;;;22.10;53.70;;;;;;4994793;28;20466;-73
2023/11/25 10:11:05;;;;;;;6.70;6.40;;;22.10;53.20;;;;;;5003923;28;20530;-74
2023/11/25 10:13:36;;;;;;;7.30;7.00;;;22.10;52.90;;;;;;5002918;28;20450;-74
2023/11/25 10:16:04;;;;;;;7.30;6.90;;;22.10;53.20;;;;;;5006516;28;20451;-73
2023/11/25 10:18:34;;;;;;;6.50;6.30;;;22.10;53.20;;;;;;5001533;28;20521;-74
2023/11/25 10:21:05;;;;;;;6.50;6.30;;;22.10;53.40;;;;;;5005917;28;20474;-69
2023/11/25 10:23:33;;;;;;;6.50;6.30;;;22.20;53.00;;;;;;5007121;28;20537;-71
2023/11/25 10:26:03;;;;;;;6.43;6.23;;;22.20;52.90;;;;;;5004926;28;20453;-72
2023/11/25 10:28:33;;;;;;;6.63;6.53;;;22.10;52.80;;;;;;5003457;28;20439;-71
2023/11/25 10:31:01;;;;;;;6.77;6.57;;;22.20;52.80;;;;;;5005615;28;20449;-71
2023/11/25 10:33:28;;;;;;;6.90;6.50;;;22.20;52.80;;;;;;5006902;28;20537;-71
2023/11/25 10:35:58;;;;;;;6.90;6.50;;;22.10;52.90;;;;;;5005295;28;20525;-73
2023/11/25 10:38:27;;;;;;;6.83;6.43;;;22.10;52.90;;;;;;5003171;28;20919;-72
2023/11/25 10:40:59;;;;;;;6.30;6.10;;;22.20;52.90;;;;;;5004274;28;20474;-73
2023/11/25 10:43:27;;;;;;;7.10;6.60;;;22.10;53.00;;;;;;5007826;28;20478;-69
2023/11/25 10:46:02;;;;;;;6.70;6.37;;;22.20;52.80;;;;;;5006267;28;20478;-71
2023/11/25 10:48:29;;;;;;;7.70;7.13;;;22.20;53.00;;;;;;5004160;28;20450;-67
2023/11/25 10:50:58;;;;;;;7.30;7.00;;;22.10;52.90;;;;;;5004300;28;20471;-70
2023/11/25 10:53:29;;;;;;;6.93;6.73;;;22.10;53.10;;;;;;5006954;28;20442;-67
2023/11/25 10:55:58;;;;;;;7.20;6.90;;;22.10;53.00;;;;;;5004974;28;20443;-67
2023/11/25 10:58:26;;;;;;;7.87;7.63;;;22.00;52.90;;;;;;5002840;28;20482;-68
2023/11/25 11:00:54;;;;;;;7.83;7.23;;;22.10;53.10;;;;;;5001782;28;20448;-69
2023/11/25 11:03:22;;;;;;;7.57;7.30;;;22.00;53.20;;;;;;5003290;28;20474;-65
2023/11/25 11:05:55;;;;;;;7.67;7.47;;;22.10;53.20;;;;;;5003200;28;21053;-67
2023/11/25 11:08:30;;;;;;;7.43;6.70;;;22.00;53.00;;;;;;5006294;28;20468;-72
2023/11/25 11:11:01;;;;;;;7.83;7.30;;;22.10;52.90;;;;;;5004048;28;20955;-69
2023/11/25 11:13:34;;;;;;;6.77;6.67;;;22.10;53.30;;;;;;5004657;28;20496;-68
2023/11/25 11:16:10;;;;;;;7.90;7.43;;;22.10;54.20;;;;;;5000014;28;20521;-66
2023/11/25 11:18:41;;;;;;;7.00;6.80;;;22.10;53.50;;;;;;5002575;28;20919;-68
2023/11/25 11:21:10;;;;;;;8.23;7.93;;;22.00;53.40;;;;;;5005558;28;20477;-69
2023/11/25 11:23:38;;;;;;;8.07;7.00;;;22.10;53.60;;;;;;5005772;28;21088;-70
2023/11/25 11:26:17;;;;;;;7.80;7.60;;;22.00;53.50;;;;;;5003190;28;20481;-71
2023/11/25 11:28:47;;;;;;;7.30;7.00;;;22.00;53.10;;;;;;5002164;28;20478;-70
2023/11/25 11:31:56;;;;;;;7.67;7.10;;;22.00;53.20;;;;;;4995118;28;20852;-71
2023/11/25 11:34:24;;;;;;;8.77;8.33;;;22.10;53.30;;;;;;4993283;28;20443;-70
2023/11/25 11:36:53;;;;;;;7.23;6.93;;;22.10;53.60;;;;;;5000011;28;20718;-70
2023/11/25 11:39:33;;;;;;;7.27;7.07;;;22.20;53.80;;;;;;5005719;28;20484;-70
2023/11/25 11:42:27;;;;;;;7.50;7.20;;;22.20;53.80;;;;;;5004037;28;20446;-69
2023/11/25 11:45:09;;;;;;;6.40;6.30;;;22.20;53.60;;;;;;5002818;28;20821;-69
2023/11/25 11:47:39;;;;;;;8.00;7.37;;;22.20;54.10;;;;;;5005324;28;20833;-70
2023/11/25 11:50:09;;;;;;;7.10;7.00;;;22.20;53.40;;;;;;5003075;28;20825;-69
2023/11/25 11:52:48;;;;;;;6.80;6.60;;;22.20;53.30;;;;;;5001790;28;20447;-72
2023/11/25 11:55:38;;;;;;;6.80;6.70;;;22.20;52.90;;;;;;4994477;28;20865;-70
2023/11/25 11:58:06;;;;;;;7.57;7.37;;;22.20;52.60;;;;;;5004053;28;20462;-70
2023/11/25 12:00:37;;;;;;;6.70;6.40;;;22.20;52.60;;;;;;5005145;28;20456;-70
2023/11/25 12:03:04;;;;;;;7.27;6.93;;;22.30;52.60;;;;;;5001805;28;20527;-70
2023/11/25 12:05:31;;;;;;;7.67;7.47;;;22.30;52.50;;;;;;5007434;28;20962;-66
2023/11/25 12:09:04;;;;;;;9.40;9.10;;;22.30;52.30;;;;;;5109600;27;20541;-68
2023/11/25 12:11:32;;;;;;;8.43;8.13;;;22.30;53.40;;;;;;5109596;28;20434;-67
2023/11/25 12:13:59;;;;;;;9.53;9.23;;;22.20;53.60;;;;;;5109140;28;20441;-67
2023/11/25 12:16:26;;;;;;;8.30;8.10;;;22.20;54.00;;;;;;5105991;28;20880;-68
2023/11/25 12:18:54;;;;;;;8.47;8.27;;;22.30;54.00;;;;;;5089077;28;20875;-68
2023/11/25 12:21:20;;;;;;;9.77;9.37;;;22.20;53.60;;;;;;5088945;28;20470;-67
2023/11/25 12:23:48;;;;;;;9.20;8.67;;;22.20;53.60;;;;;;5088246;28;20472;-67
2023/11/25 12:26:21;;;;;;;8.80;8.10;;;22.30;53.60;;;;;;5080557;28;20446;-66
2023/11/25 12:28:48;;;;;;;7.93;7.40;;;22.30;53.50;;;;;;5088846;28;20562;-68
2023/11/25 12:31:16;;;;;;;10.47;9.87;;;22.30;53.60;;;;;;5088717;28;20473;-67
2023/11/25 12:33:43;;;;;;;9.67;9.00;;;22.30;53.80;;;;;;5088696;28;20475;-68
2023/11/25 12:36:10;;;;;;;9.83;9.23;;;22.30;53.60;;;;;;5088228;28;20435;-69
2023/11/25 12:38:37;;;;;;;10.27;9.53;;;22.30;53.90;;;;;;5088538;28;20522;-69
2023/11/25 12:41:11;;;;;;;10.00;9.10;;;22.40;54.10;;;;;;5088341;28;20439;-69
2023/11/25 12:44:07;;;;;;;10.03;9.30;;;22.40;54.00;;;;;;5088559;28;20993;-67
2023/11/25 12:46:34;;;;;;;9.33;8.83;;;22.40;54.10;;;;;;5082547;28;20466;-67
2023/11/25 12:49:18;;;;;;;9.33;8.80;;;22.40;53.80;;;;;;5088340;28;20502;-66
2023/11/25 12:51:45;;;;;;;8.40;8.20;;;22.40;54.10;;;;;;5088395;28;20868;-67
2023/11/25 12:54:12;;;;;;;8.40;8.00;;;22.30;54.30;;;;;;5088249;28;20438;-67
2023/11/25 12:56:39;;;;;;;9.20;8.60;;;22.30;54.00;;;;;;5083968;28;20490;-68
2023/11/25 12:59:08;;;;;;;10.43;9.57;;;22.40;53.30;;;;;;5088150;28;20574;-65
2023/11/25 13:01:36;;;;;;;8.83;8.27;;;22.40;53.20;;;;;;5088192;28;20469;-66